createdAt,value
2017-10-19T00:00:02.613Z,83.79
2017-10-19T00:00:43.054Z,83.75
2017-10-19T00:01:23.439Z,83.6
2017-10-19T00:02:03.905Z,83.69
2017-10-19T00:02:44.309Z,84.17
2017-10-19T00:03:24.733Z,83.4
2017-10-19T00:04:05.099Z,84.27
2017-10-19T00:04:45.627Z,83.37
2017-10-19T00:05:25.956Z,83.98
2017-10-19T00:06:06.368Z,84.27
2017-10-19T00:06:46.872Z,84.23
2017-10-19T00:07:27.237Z,84.13
2017-10-19T00:08:07.673Z,84.23
2017-10-19T00:08:48.128Z,83.84
2017-10-19T00:09:28.529Z,83.94
2017-10-19T00:10:08.944Z,84.52
2017-10-19T00:10:49.402Z,84.32
2017-10-19T00:11:29.776Z,84.23
2017-10-19T00:12:10.163Z,83.94
2017-10-19T00:12:50.646Z,84.42
2017-10-19T00:13:31.086Z,84.03
2017-10-19T00:14:11.394Z,84.42
2017-10-19T00:14:51.840Z,84.23
2017-10-19T00:15:32.202Z,84.13
2017-10-19T00:16:12.605Z,84.23
2017-10-19T00:16:53.039Z,84.42
2017-10-19T00:17:33.471Z,84.32
2017-10-19T00:18:13.841Z,84.99
2017-10-19T00:18:54.271Z,84.8
2017-10-19T00:19:34.711Z,84.89
2017-10-19T00:20:15.126Z,84.99
2017-10-19T00:20:55.541Z,85.18
2017-10-19T00:21:35.953Z,85.47
2017-10-19T00:22:16.349Z,85.66
2017-10-19T00:22:56.824Z,85.94
2017-10-19T00:23:37.121Z,85.66
2017-10-19T00:24:17.811Z,86.14
2017-10-19T00:24:58.195Z,86.04
2017-10-19T00:25:38.549Z,85.71
2017-10-19T00:26:18.951Z,85.94
2017-10-19T00:26:59.403Z,86.23
2017-10-19T00:27:39.862Z,86.14
2017-10-19T00:28:20.316Z,85.75
2017-10-19T00:29:00.742Z,86.61
2017-10-19T00:29:41.149Z,85.75
2017-10-19T00:30:21.533Z,85.75
2017-10-19T00:31:01.931Z,85.57
2017-10-19T00:31:42.305Z,85.94
2017-10-19T00:32:22.751Z,85.94
2017-10-19T00:33:03.178Z,85.75
2017-10-19T00:33:43.616Z,85.94
2017-10-19T00:34:24.119Z,86.04
2017-10-19T00:35:04.518Z,85.57
2017-10-19T00:35:44.912Z,85.28
2017-10-19T00:36:25.448Z,85.38
2017-10-19T00:37:05.842Z,84.99
2017-10-19T00:37:46.254Z,84.52
2017-10-19T00:38:26.705Z,84.03
2017-10-19T00:39:07.207Z,84.17
2017-10-19T00:39:47.652Z,84.03
2017-10-19T00:40:28.068Z,84.23
2017-10-19T00:41:08.468Z,84.52
2017-10-19T00:41:48.897Z,84.03
2017-10-19T00:42:29.256Z,83.94
2017-10-19T00:43:09.725Z,84.23
2017-10-19T00:43:50.154Z,83.84
2017-10-19T00:44:30.630Z,83.94
2017-10-19T00:45:11.054Z,83.94
2017-10-19T00:45:51.445Z,84.03
2017-10-19T00:46:31.943Z,84.32
2017-10-19T00:47:12.318Z,84.99
2017-10-19T00:47:52.713Z,84.7
2017-10-19T00:48:33.127Z,84.8
2017-10-19T00:49:13.517Z,84.13
2017-10-19T00:49:53.908Z,84.23
2017-10-19T00:50:34.315Z,84.13
2017-10-19T00:51:14.762Z,84.23
2017-10-19T00:51:55.125Z,84.23
2017-10-19T00:52:35.603Z,84.8
2017-10-19T00:53:16.009Z,85.09
2017-10-19T00:53:56.449Z,85.28
2017-10-19T00:54:36.848Z,85.28
2017-10-19T00:55:17.231Z,84.99
2017-10-19T00:55:57.673Z,84.89
2017-10-19T00:56:38.058Z,85.28
2017-10-19T00:57:18.482Z,84.99
2017-10-19T00:57:58.953Z,85.57
2017-10-19T00:58:39.397Z,84.99
2017-10-19T00:59:19.833Z,85.38
2017-10-19T01:00:00.253Z,85.66
2017-10-19T01:00:40.785Z,86.04
2017-10-19T01:01:21.119Z,85.94
2017-10-19T01:02:01.526Z,85.47
2017-10-19T01:02:41.890Z,85.18
2017-10-19T01:03:22.305Z,85.47
2017-10-19T01:04:02.747Z,85.18
2017-10-19T01:04:43.127Z,84.8
2017-10-19T01:05:23.665Z,84.99
2017-10-19T01:06:03.980Z,85.28
2017-10-19T01:06:44.369Z,85.94
2017-10-19T01:07:24.788Z,85.28
2017-10-19T01:08:05.198Z,85.38
2017-10-19T01:08:45.696Z,85.47
2017-10-19T01:09:26.123Z,85.09
2017-10-19T01:10:06.496Z,84.99
2017-10-19T01:10:46.879Z,85.09
2017-10-19T01:11:27.391Z,85.18
2017-10-19T01:12:07.828Z,84.99
2017-10-19T01:12:48.216Z,84.99
2017-10-19T01:13:28.642Z,84.99
2017-10-19T01:14:09.155Z,85.47
2017-10-19T01:14:49.535Z,85.47
2017-10-19T01:15:29.972Z,85.28
2017-10-19T01:16:10.511Z,85.38
2017-10-19T01:16:50.886Z,85.42
2017-10-19T01:17:31.325Z,85.9
2017-10-19T01:18:11.788Z,85.94
2017-10-19T01:18:52.274Z,85.81
2017-10-19T01:19:32.686Z,85.9
2017-10-19T01:20:13.119Z,85.9
2017-10-19T01:20:53.559Z,86.47
2017-10-19T01:21:34.020Z,86.57
2017-10-19T01:22:14.454Z,86.57
2017-10-19T01:22:54.985Z,86.76
2017-10-19T01:23:35.375Z,86.86
2017-10-19T01:24:15.818Z,86.96
2017-10-19T01:24:56.250Z,86.96
2017-10-19T01:25:36.629Z,86.67
2017-10-19T01:26:17.118Z,87.43
2017-10-19T01:26:57.496Z,87.43
2017-10-19T01:27:37.890Z,87.62
2017-10-19T01:28:18.303Z,87.62
2017-10-19T01:28:58.653Z,87.43
2017-10-19T01:29:39.117Z,87.39
2017-10-19T01:30:19.533Z,87.53
2017-10-19T01:30:59.929Z,87.96
2017-10-19T01:31:40.324Z,87.2
2017-10-19T01:32:20.764Z,87.87
2017-10-19T01:33:01.140Z,87.68
2017-10-19T01:33:41.588Z,87.2
2017-10-19T01:34:21.964Z,87.39
2017-10-19T01:35:02.373Z,87.58
2017-10-19T01:35:42.793Z,87.68
2017-10-19T01:36:23.281Z,87.39
2017-10-19T01:37:03.689Z,87.39
2017-10-19T01:37:44.090Z,88.15
2017-10-19T01:38:24.531Z,88.06
2017-10-19T01:39:04.953Z,87.77
2017-10-19T01:39:45.410Z,88.44
2017-10-19T01:40:25.813Z,88.25
2017-10-19T01:41:06.207Z,87.77
2017-10-19T01:41:46.628Z,88.15
2017-10-19T01:42:27.093Z,88.06
2017-10-19T01:43:07.450Z,88.82
2017-10-19T01:43:47.893Z,88.44
2017-10-19T01:44:28.303Z,88.44
2017-10-19T01:45:08.773Z,88.44
2017-10-19T01:45:49.154Z,88.63
2017-10-19T01:46:29.592Z,88.63
2017-10-19T01:47:10.038Z,88.82
2017-10-19T01:47:50.468Z,88.44
2017-10-19T01:48:30.912Z,89.01
2017-10-19T01:49:11.270Z,89.11
2017-10-19T01:49:51.708Z,88.92
2017-10-19T01:50:32.137Z,89.2
2017-10-19T01:51:12.590Z,88.97
2017-10-19T01:51:52.969Z,89.25
2017-10-19T01:52:33.422Z,89.25
2017-10-19T01:53:13.852Z,89.35
2017-10-19T01:53:54.216Z,89.25
2017-10-19T01:54:34.653Z,89.73
2017-10-19T01:55:15.082Z,89.64
2017-10-19T01:55:56.463Z,89.83
2017-10-19T01:56:36.918Z,89.73
2017-10-19T01:59:00.345Z,89.54
2017-10-19T02:01:01.655Z,89.92
2017-10-19T02:01:41.937Z,89.54
2017-10-19T02:02:22.408Z,90.21
2017-10-19T02:03:02.783Z,89.83
2017-10-19T02:03:43.174Z,89.83
2017-10-19T02:04:23.556Z,89.73
2017-10-19T02:05:03.981Z,90.02
2017-10-19T02:05:44.467Z,90.02
2017-10-19T02:06:24.809Z,89.54
2017-10-19T02:07:05.315Z,89.54
2017-10-19T02:07:45.706Z,89.92
2017-10-19T02:08:26.102Z,90.11
2017-10-19T02:09:06.526Z,89.92
2017-10-19T02:09:47.002Z,90.02
2017-10-19T02:10:27.442Z,89.73
2017-10-19T02:11:07.886Z,90.02
2017-10-19T02:11:48.247Z,89.92
2017-10-19T02:12:28.672Z,89.92
2017-10-19T02:13:09.129Z,90.02
2017-10-19T02:13:49.521Z,89.54
2017-10-19T02:14:29.949Z,90.02
2017-10-19T02:15:10.430Z,89.54
2017-10-19T02:15:50.888Z,90.31
2017-10-19T02:16:31.284Z,89.83
2017-10-19T02:17:11.727Z,89.92
2017-10-19T02:17:52.068Z,89.83
2017-10-19T02:18:32.468Z,89.73
2017-10-19T02:19:12.874Z,89.64
2017-10-19T02:19:53.251Z,89.64
2017-10-19T02:20:33.631Z,89.73
2017-10-19T02:21:14.027Z,89.54
2017-10-19T02:21:54.439Z,89.73
2017-10-19T02:22:34.933Z,89.64
2017-10-19T02:23:15.261Z,89.25
2017-10-19T02:23:55.799Z,88.78
2017-10-19T02:24:36.112Z,89.45
2017-10-19T02:25:16.603Z,89.25
2017-10-19T02:25:56.976Z,89.16
2017-10-19T02:26:37.406Z,88.4
2017-10-19T02:27:17.818Z,88.2
2017-10-19T02:27:58.265Z,88.59
2017-10-19T02:28:38.683Z,89.06
2017-10-19T02:29:19.101Z,89.16
2017-10-19T02:29:59.481Z,88.49
2017-10-19T02:30:39.931Z,89.06
2017-10-19T02:31:20.366Z,88.3
2017-10-19T02:32:00.804Z,88.3
2017-10-19T02:32:41.258Z,88.3
2017-10-19T02:33:21.797Z,88.49
2017-10-19T02:34:02.211Z,88.3
2017-10-19T02:34:42.586Z,88.2
2017-10-19T02:35:23.000Z,88.2
2017-10-19T02:36:03.428Z,87.54
2017-10-19T02:36:43.856Z,88.3
2017-10-19T02:37:24.286Z,88.01
2017-10-19T02:38:04.730Z,88.2
2017-10-19T02:38:45.168Z,88.4
2017-10-19T02:39:25.553Z,88.4
2017-10-19T02:40:06.030Z,88.3
2017-10-19T02:40:46.390Z,88.4
2017-10-19T02:41:26.756Z,88.4
2017-10-19T02:42:07.182Z,89.16
2017-10-19T02:42:47.586Z,89.16
2017-10-19T02:43:27.977Z,88.59
2017-10-19T02:44:08.343Z,89.35
2017-10-19T02:44:48.792Z,89.06
2017-10-19T02:45:29.213Z,89.54
2017-10-19T02:46:09.616Z,89.64
2017-10-19T02:46:49.947Z,89.54
2017-10-19T02:47:30.468Z,89.54
2017-10-19T02:48:10.836Z,89.92
2017-10-19T02:48:51.307Z,89.54
2017-10-19T02:49:31.826Z,89.73
2017-10-19T02:50:12.093Z,89.73
2017-10-19T02:50:52.610Z,89.54
2017-10-19T02:51:33.051Z,89.54
2017-10-19T02:52:13.495Z,89.78
2017-10-19T02:52:53.902Z,89.73
2017-10-19T02:53:34.332Z,89.54
2017-10-19T02:54:14.738Z,89.54
2017-10-19T02:54:55.095Z,90.11
2017-10-19T02:55:35.466Z,90.11
2017-10-19T02:56:15.833Z,90.02
2017-10-19T02:56:56.259Z,89.06
2017-10-19T02:57:36.679Z,89.06
2017-10-19T02:58:17.040Z,89.25
2017-10-19T02:58:57.521Z,89.54
2017-10-19T02:59:37.940Z,89.73
2017-10-19T03:00:18.368Z,89.16
2017-10-19T03:00:58.749Z,89.54
2017-10-19T03:01:39.177Z,89.73
2017-10-19T03:02:19.542Z,89.54
2017-10-19T03:02:59.975Z,89.73
2017-10-19T03:03:40.487Z,89.78
2017-10-19T03:04:20.884Z,90.45
2017-10-19T03:05:01.324Z,90.17
2017-10-19T03:05:41.758Z,89.97
2017-10-19T03:06:22.226Z,90.64
2017-10-19T03:07:02.630Z,90.64
2017-10-19T03:07:43.123Z,91.21
2017-10-19T03:08:23.574Z,91.21
2017-10-19T03:09:04.019Z,91.12
2017-10-19T03:09:44.470Z,91.21
2017-10-19T03:10:24.817Z,91.12
2017-10-19T03:11:05.276Z,90.93
2017-10-19T03:11:45.700Z,90.73
2017-10-19T03:12:26.240Z,91.31
2017-10-19T03:13:06.712Z,91.31
2017-10-19T03:13:47.138Z,91.41
2017-10-19T03:14:27.616Z,91.5
2017-10-19T03:15:08.021Z,91.21
2017-10-19T03:17:13.159Z,91.21
2017-10-19T03:19:22.814Z,91.21
2017-10-19T03:20:10.105Z,91.21
2017-10-19T03:20:50.678Z,91.69
2017-10-19T03:21:31.227Z,91.21
2017-10-19T03:22:11.778Z,91.69
2017-10-19T03:22:52.431Z,91.6
2017-10-19T03:23:33.086Z,91.69
2017-10-19T03:24:13.798Z,91.88
2017-10-19T03:24:54.468Z,91.31
2017-10-19T03:25:35.145Z,92.17
2017-10-19T03:26:15.694Z,91.83
2017-10-19T03:26:56.854Z,92.07
2017-10-19T03:27:37.129Z,91.6
2017-10-19T03:28:17.802Z,91.21
2017-10-19T03:28:58.309Z,91.41
2017-10-19T03:29:39.032Z,91.41
2017-10-19T03:30:19.701Z,91.74
2017-10-19T03:31:01.293Z,91.41
2017-10-19T03:31:42.456Z,91.41
2017-10-19T03:32:23.111Z,91.93
2017-10-19T03:33:03.708Z,91.69
2017-10-19T03:33:44.415Z,91.69
2017-10-19T03:34:25.273Z,92.07
2017-10-19T03:35:05.818Z,91.83
2017-10-19T03:35:46.477Z,91.31
2017-10-19T03:36:27.138Z,91.6
2017-10-19T03:37:09.000Z,91.21
2017-10-19T03:37:52.862Z,91.02
2017-10-19T03:38:33.903Z,90.93
2017-10-19T03:39:15.358Z,91.6
2017-10-19T03:39:55.070Z,91.69
2017-10-19T03:40:35.782Z,92.17
2017-10-19T03:41:19.321Z,91.5
2017-10-19T03:41:59.933Z,90.64
2017-10-19T03:42:40.585Z,90.93
2017-10-19T03:43:22.268Z,91.02
2017-10-19T03:44:02.692Z,90.36
2017-10-19T03:44:43.363Z,90.31
2017-10-19T03:45:25.047Z,89.59
2017-10-19T03:46:05.712Z,89.4
2017-10-19T03:46:46.294Z,89.73
2017-10-19T03:47:26.895Z,89.02
2017-10-19T03:48:07.755Z,89.06
2017-10-19T03:48:48.408Z,88.87
2017-10-19T03:49:35.590Z,89.25
2017-10-19T03:50:16.981Z,89.69
2017-10-19T03:50:57.730Z,89.73
2017-10-19T03:51:38.371Z,88.83
2017-10-19T03:52:19.028Z,88.92
2017-10-19T03:52:59.701Z,89.16
2017-10-19T03:53:41.273Z,90.11
2017-10-19T03:54:22.533Z,89.54
2017-10-19T03:55:04.862Z,89.54
2017-10-19T03:55:44.870Z,89.25
2017-10-19T03:56:29.023Z,89.64
2017-10-19T03:57:10.649Z,89.54
2017-10-19T03:57:51.337Z,89.06
2017-10-19T03:58:32.487Z,89.35
2017-10-19T03:59:13.933Z,89.35
2017-10-19T03:59:54.421Z,89.06
2017-10-19T04:00:34.954Z,89.45
2017-10-19T04:01:15.625Z,89.54
2017-10-19T04:41:11.946Z,96.22
2017-10-19T04:41:53.914Z,96.32
2017-10-19T04:42:34.227Z,95.27
2017-10-19T04:43:15.394Z,95.03
2017-10-19T04:43:55.589Z,95.03
2017-10-19T04:44:36.294Z,95.17
2017-10-19T04:45:17.562Z,95.51
2017-10-19T04:45:58.114Z,95.89
2017-10-19T04:46:40.608Z,95.79
2017-10-19T04:47:21.262Z,96.13
2017-10-19T04:48:01.712Z,96.27
2017-10-19T04:48:42.894Z,95.56
2017-10-19T04:49:23.109Z,96.03
2017-10-19T04:50:03.878Z,95.61
2017-10-19T04:50:44.302Z,95.79
2017-10-19T04:51:25.077Z,94.74
2017-10-19T04:52:05.657Z,95.37
2017-10-19T04:52:46.381Z,94.7
2017-10-19T04:53:27.402Z,94.7
2017-10-19T04:54:07.455Z,94.41
2017-10-19T04:54:48.137Z,94.93
2017-10-19T04:55:29.710Z,94.22
2017-10-19T04:56:10.262Z,94.41
2017-10-19T04:56:51.019Z,94.41
2017-10-19T04:57:31.587Z,94.6
2017-10-19T04:58:13.895Z,93.84
2017-10-19T04:58:53.561Z,92.88
2017-10-19T04:59:34.346Z,92.69
2017-10-19T05:00:15.004Z,92.69
2017-10-19T05:00:55.683Z,92.6
2017-10-19T05:01:36.306Z,93.55
2017-10-19T05:02:17.450Z,93.27
2017-10-19T05:02:59.118Z,92.98
2017-10-19T05:03:39.738Z,92.41
2017-10-19T05:04:21.170Z,91.93
2017-10-19T05:05:03.399Z,92.6
2017-10-19T05:05:43.835Z,93.65
2017-10-19T05:06:25.075Z,92.88
2017-10-19T05:07:05.831Z,92.79
2017-10-19T05:07:46.483Z,92.07
2017-10-19T05:08:27.040Z,91.55
2017-10-19T05:09:07.640Z,91.88
2017-10-19T05:09:49.262Z,91.41
2017-10-19T05:10:30.017Z,91.21
2017-10-19T05:11:10.671Z,90.73
2017-10-19T05:11:51.336Z,91.98
2017-10-19T05:12:31.848Z,91.41
2017-10-19T05:13:13.244Z,91.02
2017-10-19T05:13:53.710Z,90.07
2017-10-19T05:14:34.344Z,90.17
2017-10-19T05:15:15.398Z,89.69
2017-10-19T05:15:56.470Z,89.31
2017-10-19T05:16:37.112Z,89.59
2017-10-19T05:17:17.776Z,89.5
2017-10-19T05:17:58.995Z,88.92
2017-10-19T05:18:40.619Z,88.83
2017-10-19T05:19:21.375Z,90.26
2017-10-19T05:20:01.924Z,90.64
2017-10-19T05:20:42.680Z,90.07
2017-10-19T05:21:24.153Z,89.5
2017-10-19T05:22:05.318Z,88.83
2017-10-19T05:22:45.906Z,90.64
2017-10-19T05:23:27.411Z,90.64
2017-10-19T05:24:07.239Z,89.97
2017-10-19T05:24:47.929Z,88.83
2017-10-19T05:25:29.379Z,88.45
2017-10-19T05:26:11.415Z,88.16
2017-10-19T05:26:51.348Z,88.83
2017-10-19T05:27:32.908Z,89.21
2017-10-19T05:28:12.682Z,88.83
2017-10-19T05:28:53.894Z,89.21
2017-10-19T05:29:34.446Z,89.12
2017-10-19T05:30:14.996Z,88.35
2017-10-19T05:30:58.905Z,89.12
2017-10-19T05:31:51.958Z,89.69
2017-10-19T05:34:06.709Z,89.02
2017-10-19T05:35:34.681Z,88.64
2017-10-19T05:38:06.717Z,89.88
2017-10-19T05:39:01.990Z,89.69
2017-10-19T05:39:54.937Z,89.4
2017-10-19T05:40:49.341Z,89.12
2017-10-19T05:41:44.581Z,89.12
2017-10-19T05:43:42.035Z,88.92
2017-10-19T05:44:39.217Z,87.73
2017-10-19T05:45:34.512Z,87.54
2017-10-19T05:46:35.431Z,89.12
2017-10-19T05:47:30.509Z,88.16
2017-10-19T05:51:13.001Z,87.92
2017-10-19T05:52:06.277Z,88.3
2017-10-19T05:52:59.199Z,87.73
2017-10-19T05:53:54.953Z,87.3
2017-10-19T05:54:51.111Z,88.4
2017-10-19T05:55:46.193Z,88.01
2017-10-19T05:56:40.478Z,87.21
2017-10-19T05:57:33.750Z,88.11
2017-10-19T05:58:28.836Z,87.21
2017-10-19T05:59:25.176Z,87.4
2017-10-19T06:00:19.825Z,88.35
2017-10-19T06:01:16.723Z,89.12
2017-10-19T06:02:11.628Z,89.4
2017-10-19T06:03:08.860Z,88.78
2017-10-19T06:04:03.524Z,89.06
2017-10-19T06:06:00.004Z,87.25
2017-10-19T06:06:53.416Z,88.87
2017-10-19T06:07:46.590Z,89.35
2017-10-19T06:08:40.277Z,87.63
2017-10-19T06:09:36.835Z,87.44
2017-10-19T06:10:31.493Z,87.06
2017-10-19T06:11:26.456Z,86.01
2017-10-19T06:12:20.643Z,87.25
2017-10-19T06:13:15.865Z,88.3
2017-10-19T06:14:10.850Z,88.2
2017-10-19T06:15:06.234Z,88.59
2017-10-19T06:15:59.418Z,88.97
2017-10-19T06:16:54.309Z,87.63
2017-10-19T06:17:48.610Z,87.44
2017-10-19T06:18:42.130Z,87.82
2017-10-19T06:19:22.763Z,87.73
2017-10-19T06:20:03.580Z,87.54
2017-10-19T06:20:44.318Z,87.73
2017-10-19T06:21:26.781Z,87.35
2017-10-19T06:22:07.056Z,86.77
2017-10-19T06:22:47.793Z,87.35
2017-10-19T06:23:29.749Z,87.92
2017-10-19T06:24:12.249Z,87.92
2017-10-19T06:24:52.120Z,87.44
2017-10-19T06:25:34.250Z,87.92
2017-10-19T06:27:34.298Z,87.35
2017-10-19T06:28:37.267Z,86.39
2017-10-19T06:30:37.580Z,86.24
2017-10-19T06:31:37.300Z,85.96
2017-10-19T06:32:34.655Z,85.86
2017-10-19T06:33:32.253Z,85
2017-10-19T06:34:36.629Z,84.14
2017-10-19T06:35:26.073Z,84.33
2017-10-19T06:36:23.531Z,84.62
2017-10-19T06:37:15.578Z,84.09
2017-10-19T06:38:00.622Z,85.05
2017-10-19T06:38:42.408Z,83.7
2017-10-19T06:39:27.131Z,83.13
2017-10-19T06:40:08.002Z,83.23
2017-10-19T06:40:49.567Z,82.84
2017-10-19T06:41:34.519Z,82.51
2017-10-19T06:42:16.608Z,81.55
2017-10-19T06:42:58.246Z,81.74
2017-10-19T06:43:39.466Z,81.55
2017-10-19T06:44:20.620Z,81.41
2017-10-19T06:45:03.028Z,82.46
2017-10-19T06:45:44.020Z,82.75
2017-10-19T06:46:24.559Z,82.08
2017-10-19T06:47:06.522Z,82.75
2017-10-19T06:47:47.292Z,82.56
2017-10-19T06:48:28.120Z,83.13
2017-10-19T06:50:53.523Z,82.89
2017-10-19T06:51:51.347Z,82.22
2017-10-19T06:52:46.868Z,81.74
2017-10-19T06:53:38.169Z,81.74
2017-10-19T06:54:18.935Z,81.65
2017-10-19T06:54:59.977Z,82.37
2017-10-19T06:55:40.370Z,81.93
2017-10-19T06:56:24.815Z,82.31
2017-10-19T06:57:09.626Z,82.79
2017-10-19T06:57:51.480Z,82.6
2017-10-19T06:58:39.402Z,82.31
2017-10-19T06:59:19.807Z,82.51
2017-10-19T07:00:01.485Z,82.79
2017-10-19T07:00:42.178Z,81.93
2017-10-19T07:01:24.114Z,81.36
2017-10-19T07:02:06.111Z,81.16
2017-10-19T07:11:04.692Z,77.7
2017-10-19T07:14:03.150Z,77.04
2017-10-19T07:14:46.144Z,76.6
2017-10-19T07:15:26.277Z,76.69
2017-10-19T07:16:06.790Z,76.79
2017-10-19T07:16:47.203Z,75.93
2017-10-19T07:17:27.744Z,75.16
2017-10-19T07:18:08.565Z,75.35
2017-10-19T07:18:52.527Z,76.4
2017-10-19T07:21:14.334Z,77.7
2017-10-19T07:22:07.467Z,78.47
2017-10-19T07:22:50.335Z,77.42
2017-10-19T07:23:31.004Z,77.9
2017-10-19T07:24:12.923Z,77.8
2017-10-19T07:24:54.317Z,77.33
2017-10-19T07:25:36.872Z,77.7
2017-10-19T07:26:19.753Z,77.51
2017-10-19T07:27:12.326Z,77.55
2017-10-19T07:27:53.978Z,76.31
2017-10-19T07:35:43.763Z,73.41
2017-10-19T07:38:22.872Z,71.63
2017-10-19T07:39:16.912Z,71.92
2017-10-19T07:40:12.143Z,71.53
2017-10-19T07:41:08.548Z,71.53
2017-10-19T07:43:22.378Z,70.57
2017-10-19T07:44:04.136Z,70.48
2017-10-19T07:44:44.893Z,70.76
2017-10-19T07:45:25.585Z,70.57
2017-10-19T07:46:06.001Z,70.03
2017-10-19T07:46:46.525Z,69.65
2017-10-19T07:47:27.140Z,69.9
2017-10-19T07:48:08.850Z,70.8
2017-10-19T07:48:49.948Z,70.38
2017-10-19T07:49:31.103Z,69.84
2017-10-19T07:50:11.609Z,69.84
2017-10-19T07:50:52.093Z,69.74
2017-10-19T07:51:32.390Z,69.93
2017-10-19T07:52:13.940Z,69.9
2017-10-19T07:52:54.065Z,70.13
2017-10-19T07:53:34.820Z,70.03
2017-10-19T07:54:15.453Z,69.65
2017-10-19T07:54:55.950Z,70.29
2017-10-19T07:55:36.586Z,70.48
2017-10-19T07:56:17.534Z,70.96
2017-10-19T07:56:57.830Z,71.98
2017-10-19T07:57:38.261Z,72.64
2017-10-19T07:58:18.958Z,72.36
2017-10-19T07:59:00.895Z,72.64
2017-10-19T07:59:40.794Z,72.45
2017-10-19T08:00:22.171Z,72.64
2017-10-19T08:01:03.016Z,72.55
2017-10-19T08:01:45.403Z,73.13
2017-10-19T08:02:26.768Z,72.39
2017-10-19T08:03:07.349Z,72.78
2017-10-19T08:03:47.952Z,72.3
2017-10-19T08:04:28.740Z,71.57
2017-10-19T08:05:09.407Z,70.7
2017-10-19T08:05:50.074Z,69.87
2017-10-19T08:06:33.157Z,69.87
2017-10-19T08:07:13.721Z,69.4
2017-10-19T08:07:54.293Z,67.8
2017-10-19T08:08:36.225Z,67.8
2017-10-19T08:09:16.604Z,67.03
2017-10-19T08:09:57.193Z,66.49
2017-10-19T08:10:39.913Z,65.72
2017-10-19T08:11:21.213Z,65.81
2017-10-19T08:12:00.950Z,65.53
2017-10-19T08:12:41.443Z,65.23
2017-10-19T08:13:24.540Z,64.18
2017-10-19T08:14:06.003Z,64.12
2017-10-19T08:14:46.504Z,63.45
2017-10-19T08:15:27.048Z,63.45
2017-10-19T08:16:08.190Z,62.61
2017-10-19T08:16:48.605Z,62.19
2017-10-19T08:17:29.527Z,62.61
2017-10-19T08:18:12.253Z,62.51
2017-10-19T08:18:54.242Z,62.61
2017-10-19T08:19:34.839Z,62.32
2017-10-19T08:20:15.658Z,61.29
2017-10-19T08:20:55.964Z,61.19
2017-10-19T08:21:37.880Z,60.52
2017-10-19T08:22:18.936Z,59.85
2017-10-19T08:22:59.320Z,59.85
2017-10-19T08:23:40.906Z,60.24
2017-10-19T08:24:21.520Z,60.52
2017-10-19T08:25:02.358Z,61.26
2017-10-19T08:25:43.979Z,60.97
2017-10-19T08:26:24.539Z,61.07
2017-10-19T08:27:05.130Z,61.16
2017-10-19T08:27:46.301Z,61.68
2017-10-19T08:28:27.790Z,60.75
2017-10-19T08:29:07.775Z,59.69
2017-10-19T08:29:49.503Z,58.85
2017-10-19T08:30:30.053Z,58.3
2017-10-19T08:31:10.597Z,57.43
2017-10-19T08:31:51.066Z,57.05
2017-10-19T08:32:32.214Z,57.14
2017-10-19T08:33:11.973Z,56.66
2017-10-19T08:33:52.524Z,56.95
2017-10-19T08:34:32.991Z,56.21
2017-10-19T08:35:13.469Z,55.99
2017-10-19T08:35:53.959Z,56.18
2017-10-19T08:36:34.521Z,56.76
2017-10-19T08:37:15.162Z,56.76
2017-10-19T08:37:55.776Z,57.05
2017-10-19T08:39:57.251Z,56.76
2017-10-19T08:40:52.065Z,56.95
2017-10-19T08:41:50.344Z,57.6
2017-10-19T08:42:44.431Z,58.08
2017-10-19T08:43:39.416Z,57.98
2017-10-19T08:46:02.740Z,58.75
2017-10-19T08:46:43.184Z,59.04
2017-10-19T08:47:28.387Z,58.08
2017-10-19T08:48:08.914Z,58.75
2017-10-19T08:48:49.432Z,58.01
2017-10-19T08:49:30.059Z,57.53
2017-10-19T08:50:10.645Z,57.4
2017-10-19T08:50:52.075Z,57.89
2017-10-19T08:51:32.834Z,58.08
2017-10-19T08:52:13.503Z,58.63
2017-10-19T08:52:55.661Z,59.2
2017-10-19T08:53:36.742Z,59.43
2017-10-19T08:54:17.111Z,58.47
2017-10-19T08:54:57.500Z,57.82
2017-10-19T08:55:38.118Z,57.43
2017-10-19T08:56:19.657Z,57.14
2017-10-19T08:57:00.274Z,57.34
2017-10-19T08:57:40.927Z,57.43
2017-10-19T08:58:21.456Z,56.76
2017-10-19T08:59:02.090Z,56.95
2017-10-19T08:59:42.747Z,57.21
2017-10-19T09:00:24.058Z,57.89
2017-10-19T09:01:04.552Z,58.56
2017-10-19T09:01:49.795Z,58.47
2017-10-19T09:02:34.087Z,58.47
2017-10-19T09:03:15.027Z,58.65
2017-10-19T09:03:55.469Z,58.65
2017-10-19T09:04:36.024Z,58.01
2017-10-19T09:05:16.545Z,57.82
2017-10-19T09:05:58.239Z,57.34
2017-10-19T09:06:39.073Z,56.85
2017-10-19T09:07:20.090Z,56.79
2017-10-19T09:08:01.141Z,55.92
2017-10-19T09:08:43.246Z,55.36
2017-10-19T09:09:24.767Z,55.56
2017-10-19T09:10:05.322Z,55.05
2017-10-19T09:10:45.812Z,55.15
2017-10-19T09:11:26.329Z,55.24
2017-10-19T09:12:07.627Z,55.18
2017-10-19T09:12:50.373Z,55.54
2017-10-19T09:13:35.281Z,56.3
2017-10-19T09:14:16.868Z,56.01
2017-10-19T09:15:01.903Z,56.01
2017-10-19T09:15:42.429Z,55.92
2017-10-19T09:16:22.964Z,56.04
2017-10-19T09:17:05.877Z,55.36
2017-10-19T09:17:47.167Z,55.08
2017-10-19T09:18:29.252Z,54.88
2017-10-19T09:21:30.903Z,55.73
2017-10-19T09:23:45.907Z,56.95
2017-10-19T09:24:48.389Z,56.98
2017-10-19T09:25:45.755Z,56.4
2017-10-19T09:26:45.534Z,55.82
2017-10-19T09:28:47.123Z,57.43
2017-10-19T09:31:52.702Z,55.76
2017-10-19T09:32:51.089Z,54.91
2017-10-19T09:34:53.003Z,54.53
2017-10-19T09:36:58.971Z,52.81
2017-10-19T09:37:40.724Z,52.45
2017-10-19T09:38:20.074Z,52.43
2017-10-19T09:39:00.996Z,52.26
2017-10-19T09:39:42.826Z,52.26
2017-10-19T09:40:23.267Z,52.45
2017-10-19T09:41:03.824Z,52.36
2017-10-19T09:41:44.169Z,52.36
2017-10-19T09:42:24.706Z,51.81
2017-10-19T09:43:05.258Z,51.51
2017-10-19T09:43:47.459Z,51.03
2017-10-19T09:44:28.431Z,51.23
2017-10-19T09:45:09.870Z,51.03
2017-10-19T09:45:50.303Z,50.65
2017-10-19T09:46:31.123Z,50.55
2017-10-19T09:47:13.588Z,50.84
2017-10-19T09:47:53.747Z,51.01
2017-10-19T09:48:34.369Z,51.78
2017-10-19T09:49:16.946Z,52.17
2017-10-19T09:49:58.052Z,52.72
2017-10-19T09:50:40.472Z,53.49
2017-10-19T09:51:21.360Z,54.33
2017-10-19T09:52:02.446Z,54.62
2017-10-19T09:52:42.795Z,54.82
2017-10-19T09:53:23.484Z,54.82
2017-10-19T09:54:04.961Z,54.82
2017-10-19T09:56:32.670Z,54.55
2017-10-19T09:57:18.040Z,53.97
2017-10-19T09:58:01.756Z,53.91
2017-10-19T09:58:41.700Z,53.03
2017-10-19T09:59:22.446Z,52.65
2017-10-19T10:00:04.753Z,52.45
2017-10-19T10:00:45.192Z,52.48
2017-10-19T10:01:27.088Z,51.71
2017-10-19T10:02:08.753Z,51.61
2017-10-19T10:02:50.997Z,51.9
2017-10-19T10:41:47.756Z,50.14
2017-10-19T10:42:53.260Z,49.95
2017-10-19T10:43:52.521Z,50.24
2017-10-19T10:44:49.829Z,50.5
2017-10-19T10:46:10.998Z,50.7
2017-10-19T10:48:16.019Z,50.98
2017-10-19T10:49:17.416Z,51.66
2017-10-19T10:50:06.358Z,50.98
2017-10-19T10:50:47.376Z,50.89
2017-10-19T10:51:31.387Z,50.6
2017-10-19T10:52:13.878Z,50.79
2017-10-19T10:52:54.535Z,50.79
2017-10-19T10:53:35.121Z,51.1
2017-10-19T10:54:18.612Z,50.92
2017-10-19T10:55:01.383Z,50.7
2017-10-19T10:58:14.198Z,51.76
2017-10-19T10:59:14.085Z,51.66
2017-10-19T11:02:54.722Z,52.41
2017-10-19T11:04:57.574Z,52.31
2017-10-19T11:06:00.364Z,51.83
2017-10-19T11:06:58.607Z,52.31
2017-10-19T11:07:54.956Z,52.7
2017-10-19T11:09:04.557Z,52.8
2017-10-19T11:17:01.690Z,49.39
2017-10-19T11:18:00.434Z,48.97
2017-10-19T11:18:44.505Z,49.75
2017-10-19T11:19:28.226Z,49.65
2017-10-19T11:20:13.987Z,50.43
2017-10-19T11:20:54.007Z,50.33
2017-10-19T11:21:37.420Z,51.01
2017-10-19T11:22:18.693Z,50.33
2017-10-19T11:23:02.540Z,50.21
2017-10-19T11:23:44.081Z,50.24
2017-10-19T11:30:21.229Z,47.45
2017-10-19T11:31:28.750Z,47.52
2017-10-19T11:32:10.304Z,48.3
2017-10-19T11:32:58.215Z,48.3
2017-10-19T11:33:40.336Z,48.39
2017-10-19T11:34:21.165Z,48.39
2017-10-19T11:35:04.974Z,48.79
2017-10-19T11:35:52.699Z,48.69
2017-10-19T11:36:35.117Z,48.49
2017-10-19T11:37:17.212Z,48.69
2017-10-19T11:37:59.169Z,48.66
2017-10-19T11:38:40.642Z,48.76
2017-10-19T11:39:21.290Z,49.24
2017-10-19T11:40:02.086Z,50.09
2017-10-19T11:40:42.590Z,50.45
2017-10-19T11:41:32.274Z,50.84
2017-10-19T11:42:15.076Z,51.51
2017-10-19T11:42:57.670Z,51.13
2017-10-19T11:43:39.369Z,51.42
2017-10-19T11:44:20.897Z,51.81
2017-10-19T11:45:10.177Z,51.15
2017-10-19T11:45:54.325Z,51.03